Flight Track Log - Related Links

Times and Time Zones

All times are in EDT time to prevent confusion due to time zone crossing. See the N777NC flight status page for this flight to view local times or setup timezone preferences in your user account.

Time Position Orientation Groundspeed Altitude Reporting Facility
EDT Latitude Longitude Course Direction KTS MPH feet Rate Location/Type
Fri 08:34:21 AM 33.3128 -82.0528 239° Southwest 332 382 3,000  Level Atlanta Center
Fri 08:35:21 AM 33.3014 -82.1300 260° West 289 333 4,000 500 Climbing Atlanta Center
Fri 08:36:21 AM 33.2903 -82.2122 261° West 261 300 4,000 150 Level Atlanta Center
Fri 08:37:00 AM 33.6968 -82.1484 337° Northwest  Level FlightAware Approximate
Fri 08:37:21 AM 33.2808 -82.2944 262° West 255 293 4,300  Level Atlanta Center
Fri 08:38:00 AM 33.6702 -82.2263 239° Southwest  Level FlightAware Approximate
Fri 08:38:21 AM 33.2653 -82.3767 257° West 255 293 7,100  Level Atlanta Center
Fri 08:39:00 AM 33.6322 -82.3025 239° Southwest  Level FlightAware Approximate
Fri 08:39:21 AM 33.2539 -82.4614 261° West 255 293 9,100  Level Atlanta Center
Fri 08:40:21 AM 33.2383 -82.5561 259° West 266 306 10,600 1,550 Climbing Atlanta Center
Fri 08:41:21 AM 33.2167 -82.6658 257° West 309 356 12,200 1,950 Climbing Atlanta Center
Fri 08:42:21 AM 33.2011 -82.7628 259° West 319 367 14,500 2,050 Climbing Atlanta Center
Fri 08:43:21 AM 33.1853 -82.8647 260° West 314 361 16,300 1,300 Climbing Atlanta Center
Fri 08:44:21 AM 33.1697 -82.9767 261° West 335 386 17,100 1,250 Climbing Atlanta Center
Fri 08:45:21 AM 33.1436 -83.1011 256° West 359 413 18,800 1,500 Climbing Atlanta Center
Fri 08:46:21 AM 33.1444 -83.2225 271° West 378 435 20,100 200 Climbing Atlanta Center
Fri 08:47:21 AM 33.1431 -83.3417 269° West 389 448 19,200 -1,100 Descending Atlanta Center
Fri 08:48:21 AM 33.1417 -83.4583 269° West 376 433 17,900 -2,000 Descending Atlanta Center
Fri 08:49:21 AM 33.1442 -83.5675 272° West 344 396 15,200 -2,176 Descending Atlanta Center
Fri 08:50:03 AM 33.1667 -83.6500 288° West 314 361 14,200 -1,471 Descending Atlanta TRACON
Fri 08:51:03 AM 33.2000 -83.7333 296° West 290 334 12,700 -1,048 Descending Atlanta TRACON
Fri 08:52:09 AM 33.2500 -83.8333 301° West 292 336 12,000 -1,143 Descending Atlanta TRACON
Fri 08:53:09 AM 33.3000 -83.9000 312° West 275 316 10,300 -1,737 Descending Atlanta TRACON
Fri 08:54:03 AM 33.3500 -83.9333 331° Northwest 282 325 8,700 -1,211 Descending Atlanta TRACON
Fri 08:55:03 AM 33.4167 -83.9667 337° Northwest 262 302 8,000 -350 Descending Atlanta TRACON
Fri 08:56:03 AM 33.5000 -83.9833 351° North 287 330 8,000 -667 Level Atlanta TRACON
Fri 08:57:09 AM 33.5667 -84.0333 328° Northwest 268 308 6,600 -1,350 Descending Atlanta TRACON
Fri 08:58:03 AM 33.6000 -84.1000 301° West 257 296 5,300 -1,368 Descending Atlanta TRACON
Fri 08:59:03 AM 33.6167 -84.1667 287° West 238 274 4,000 -1,300 Descending Atlanta TRACON

Login

Don't have an account? Register now (free) for customized features, flight alerts, and more!